Time,TemperatureF,DewpointF,PressureIn,WindDirection,WindDirectionDegrees,WindSpeedMPH,WindSpeedGustMPH,Humidity,HourlyPrecipIn,Conditions,Clouds,dailyrainin,SoftwareType,DateUTC
2013-08-06 00:04:00,58.3,56.0,30.04,NE,49,0.0,0.0,90,0.00,,,0.00,weatherlink.com 1.10,2013-08-06 07:04:00,
2013-08-06 00:19:00,58.1,55.0,30.04,NE,49,0.0,1.0,90,0.00,,,0.00,weatherlink.com 1.10,2013-08-06 07:19:00,
2013-08-06 00:34:00,58.0,55.0,30.03,NE,49,0.0,1.0,90,0.00,,,0.00,weatherlink.com 1.10,2013-08-06 07:34:00,
2013-08-06 00:49:00,58.0,55.0,30.03,NE,49,0.0,0.0,90,0.00,,,0.00,weatherlink.com 1.10,2013-08-06 07:49:00,
2013-08-06 01:04:00,57.8,55.0,30.03,NE,49,0.0,1.0,90,0.00,,,0.00,weatherlink.com 1.10,2013-08-06 08:04:00,
2013-08-06 01:19:00,57.9,55.0,30.02,NE,49,0.0,1.0,90,0.00,,,0.00,weatherlink.com 1.10,2013-08-06 08:19:00,
2013-08-06 01:34:00,58.0,55.0,30.02,NE,49,1.0,1.0,90,0.00,,,0.00,weatherlink.com 1.10,2013-08-06 08:34:00,
2013-08-06 01:49:00,58.1,55.0,30.02,NE,49,0.0,1.0,89,0.00,,,0.00,weatherlink.com 1.10,2013-08-06 08:49:00,
2013-08-06 02:04:00,58.0,55.0,30.02,NE,49,0.0,1.0,90,0.00,,,0.00,weatherlink.com 1.10,2013-08-06 09:04:00,
2013-08-06 02:19:00,57.7,55.0,30.02,NE,49,0.0,0.0,90,0.00,,,0.00,weatherlink.com 1.10,2013-08-06 09:19:00,
2013-08-06 02:34:00,57.6,55.0,30.01,NE,49,0.0,0.0,91,0.00,,,0.00,weatherlink.com 1.10,2013-08-06 09:34:00,
2013-08-06 02:49:00,57.7,55.0,30.02,NE,49,0.0,1.0,91,0.00,,,0.00,weatherlink.com 1.10,2013-08-06 09:49:00,
2013-08-06 03:04:00,57.6,55.0,30.02,NE,49,0.0,0.0,90,0.00,,,0.00,weatherlink.com 1.10,2013-08-06 10:04:00,
2013-08-06 03:19:00,57.5,55.0,30.01,NE,49,0.0,0.0,90,0.00,,,0.00,weatherlink.com 1.10,2013-08-06 10:19:00,
2013-08-06 03:34:00,57.4,55.0,30.01,NE,49,0.0,0.0,90,0.00,,,0.00,weatherlink.com 1.10,2013-08-06 10:34:00,
2013-08-06 03:49:00,57.4,55.0,30.02,NE,49,0.0,1.0,90,0.00,,,0.00,weatherlink.com 1.10,2013-08-06 10:49:00,
2013-08-06 04:04:00,57.4,55.0,30.02,NE,49,0.0,0.0,91,0.00,,,0.00,weatherlink.com 1.10,2013-08-06 11:04:00,
2013-08-06 04:19:00,57.4,55.0,30.02,NE,49,0.0,1.0,91,0.00,,,0.00,weatherlink.com 1.10,2013-08-06 11:19:00,
2013-08-06 04:34:00,57.3,55.0,30.02,NE,49,0.0,0.0,91,0.00,,,0.00,weatherlink.com 1.10,2013-08-06 11:34:00,
2013-08-06 04:49:00,57.5,55.0,30.02,NE,49,0.0,0.0,91,0.00,,,0.00,weatherlink.com 1.10,2013-08-06 11:49:00,
2013-08-06 05:04:00,57.3,55.0,30.03,NE,49,0.0,0.0,91,0.00,,,0.00,weatherlink.com 1.10,2013-08-06 12:04:00,
2013-08-06 05:19:00,57.3,55.0,30.03,NE,49,0.0,0.0,91,0.00,,,0.00,weatherlink.com 1.10,2013-08-06 12:19:00,
2013-08-06 05:34:00,57.2,55.0,30.03,NE,49,0.0,0.0,91,0.00,,,0.00,weatherlink.com 1.10,2013-08-06 12:34:00,
2013-08-06 05:49:00,57.3,55.0,30.04,NE,49,0.0,0.0,91,0.00,,,0.00,weatherlink.com 1.10,2013-08-06 12:49:00,
2013-08-06 06:04:00,57.3,55.0,30.04,NE,49,0.0,1.0,91,0.00,,,0.00,weatherlink.com 1.10,2013-08-06 13:04:00,
2013-08-06 06:19:00,57.4,55.0,30.05,NE,49,0.0,0.0,90,0.00,,,0.00,weatherlink.com 1.10,2013-08-06 13:19:00,
2013-08-06 06:34:00,57.5,54.0,30.05,NE,49,0.0,0.0,89,0.00,,,0.00,weatherlink.com 1.10,2013-08-06 13:34:00,
2013-08-06 06:49:00,57.7,55.0,30.06,NE,49,0.0,0.0,90,0.00,,,0.00,weatherlink.com 1.10,2013-08-06 13:49:00,
2013-08-06 07:04:00,58.0,55.0,30.06,NE,49,0.0,0.0,90,0.00,,,0.00,weatherlink.com 1.10,2013-08-06 14:04:00,
2013-08-06 07:19:00,58.5,55.0,30.06,NE,49,0.0,1.0,89,0.00,,,0.00,weatherlink.com 1.10,2013-08-06 14:19:00,
2013-08-06 07:34:00,58.9,55.0,30.07,NE,49,0.0,3.0,88,0.00,,,0.00,weatherlink.com 1.10,2013-08-06 14:34:00,
2013-08-06 07:49:00,59.3,56.0,30.07,NE,49,0.0,0.0,88,0.00,,,0.00,weatherlink.com 1.10,2013-08-06 14:49:00,
2013-08-06 08:04:00,59.8,56.0,30.07,NE,49,0.0,0.0,88,0.00,,,0.00,weatherlink.com 1.10,2013-08-06 15:04:00,
2013-08-06 08:19:00,60.3,57.0,30.07,NE,49,0.0,0.0,87,0.00,,,0.00,weatherlink.com 1.10,2013-08-06 15:19:00,
2013-08-06 08:34:00,60.7,57.0,30.07,NE,49,0.0,0.0,86,0.00,,,0.00,weatherlink.com 1.10,2013-08-06 15:34:00,
2013-08-06 08:49:00,61.3,57.0,30.07,NE,49,0.0,1.0,85,0.00,,,0.00,weatherlink.com 1.10,2013-08-06 15:49:00,
2013-08-06 09:05:00,61.9,57.0,30.08,NE,49,0.0,1.0,84,0.00,,,0.00,weatherlink.com 1.10,2013-08-06 16:05:00,
2013-08-06 09:20:00,62.3,57.0,30.08,NE,49,0.0,0.0,84,0.01,,,0.01,weatherlink.com 1.10,2013-08-06 16:20:00,
2013-08-06 09:35:00,62.5,56.0,30.09,NE,49,0.0,0.0,80,0.01,,,0.01,weatherlink.com 1.10,2013-08-06 16:35:00,
2013-08-06 09:50:00,62.7,56.0,30.09,NE,49,0.0,0.0,79,0.01,,,0.01,weatherlink.com 1.10,2013-08-06 16:50:00,
2013-08-06 10:05:00,62.6,56.0,30.09,NE,49,0.0,0.0,79,0.01,,,0.01,weatherlink.com 1.10,2013-08-06 17:05:00,
2013-08-06 10:20:00,62.9,57.0,30.09,NE,49,0.0,2.0,82,0.00,,,0.01,weatherlink.com 1.10,2013-08-06 17:20:00,
2013-08-06 10:35:00,63.3,55.0,30.09,NE,49,2.0,3.0,75,0.00,,,0.01,weatherlink.com 1.10,2013-08-06 17:35:00,
2013-08-06 10:50:00,63.6,55.0,30.09,NNW,342,1.0,6.0,73,0.00,,,0.01,weatherlink.com 1.10,2013-08-06 17:50:00,
2013-08-06 11:05:00,64.3,55.0,30.09,NNE,20,2.0,4.0,73,0.00,,,0.01,weatherlink.com 1.10,2013-08-06 18:05:00,
2013-08-06 11:20:00,64.4,57.0,30.09,North,6,0.0,4.0,76,0.00,,,0.01,weatherlink.com 1.10,2013-08-06 18:20:00,
2013-08-06 11:35:00,63.8,55.0,30.10,NNE,12,2.0,5.0,73,0.00,,,0.01,weatherlink.com 1.10,2013-08-06 18:35:00,
2013-08-06 11:50:00,63.0,53.0,30.10,NNE,27,0.0,6.0,71,0.00,,,0.01,weatherlink.com 1.10,2013-08-06 18:50:00,
2013-08-06 12:05:00,63.0,55.0,30.10,NNE,21,1.0,4.0,74,0.00,,,0.01,weatherlink.com 1.10,2013-08-06 19:05:00,
2013-08-06 12:20:00,63.2,54.0,30.10,WNW,291,0.0,4.0,71,0.00,,,0.01,weatherlink.com 1.10,2013-08-06 19:20:00,
2013-08-06 12:35:00,63.2,56.0,30.10,North,360,0.0,2.0,76,0.00,,,0.01,weatherlink.com 1.10,2013-08-06 19:35:00,
2013-08-06 12:50:00,62.5,53.0,30.10,West,281,0.0,2.0,71,0.00,,,0.01,weatherlink.com 1.10,2013-08-06 19:50:00,
2013-08-06 13:05:00,62.4,54.0,30.10,West,281,0.0,0.0,74,0.00,,,0.01,weatherlink.com 1.10,2013-08-06 20:05:00,
2013-08-06 13:21:00,62.2,55.0,30.10,West,281,0.0,1.0,77,0.00,,,0.01,weatherlink.com 1.10,2013-08-06 20:21:00,
2013-08-06 13:35:00,62.3,54.0,30.10,West,281,0.0,3.0,74,0.01,,,0.02,weatherlink.com 1.10,2013-08-06 20:35:00,
2013-08-06 13:50:00,62.4,54.0,30.10,WNW,302,1.0,2.0,73,0.01,,,0.02,weatherlink.com 1.10,2013-08-06 20:50:00,
2013-08-06 14:05:00,62.4,52.0,30.10,NW,309,0.0,3.0,69,0.01,,,0.02,weatherlink.com 1.10,2013-08-06 21:05:00,
2013-08-06 14:20:00,62.1,53.0,30.10,WNW,300,0.0,3.0,72,0.01,,,0.02,weatherlink.com 1.10,2013-08-06 21:20:00,
2013-08-06 14:35:00,61.6,56.0,30.10,WNW,300,1.0,1.0,81,0.00,,,0.02,weatherlink.com 1.10,2013-08-06 21:35:00,
2013-08-06 14:50:00,60.8,56.0,30.09,WNW,300,0.0,1.0,84,0.00,,,0.02,weatherlink.com 1.10,2013-08-06 21:50:00,
2013-08-06 15:05:00,60.4,57.0,30.09,WNW,300,0.0,1.0,87,0.00,,,0.02,weatherlink.com 1.10,2013-08-06 22:05:00,
2013-08-06 15:20:00,60.1,56.0,30.09,WNW,300,0.0,1.0,87,0.00,,,0.02,weatherlink.com 1.10,2013-08-06 22:20:00,
2013-08-06 15:35:00,60.0,56.0,30.09,WNW,300,0.0,1.0,87,0.00,,,0.02,weatherlink.com 1.10,2013-08-06 22:35:00,
2013-08-06 15:50:00,60.0,57.0,30.08,WNW,300,0.0,1.0,88,0.00,,,0.02,weatherlink.com 1.10,2013-08-06 22:50:00,
2013-08-06 16:05:00,60.0,57.0,30.08,WNW,300,0.0,0.0,88,0.00,,,0.02,weatherlink.com 1.10,2013-08-06 23:05:00,
2013-08-06 16:20:00,60.2,54.0,30.08,WNW,300,0.0,3.0,81,0.00,,,0.02,weatherlink.com 1.10,2013-08-06 23:20:00,
2013-08-06 16:35:00,60.6,53.0,30.08,WNW,300,0.0,2.0,77,0.00,,,0.02,weatherlink.com 1.10,2013-08-06 23:35:00,
2013-08-06 16:51:00,60.7,52.0,30.08,WNW,300,0.0,1.0,74,0.00,,,0.02,weatherlink.com 1.10,2013-08-06 23:51:00,
2013-08-06 17:05:00,60.7,53.0,30.08,WNW,300,0.0,2.0,75,0.00,,,0.02,weatherlink.com 1.10,2013-08-07 00:05:00,
2013-08-06 17:20:00,60.7,52.0,30.09,WNW,300,0.0,2.0,73,0.00,,,0.02,weatherlink.com 1.10,2013-08-07 00:20:00,
2013-08-06 17:35:00,60.7,52.0,30.09,NE,45,0.0,3.0,74,0.00,,,0.02,weatherlink.com 1.10,2013-08-07 00:35:00,
2013-08-06 17:50:00,60.6,52.0,30.10,NE,45,0.0,0.0,73,0.00,,,0.02,weatherlink.com 1.10,2013-08-07 00:50:00,
2013-08-06 18:05:00,60.5,51.0,30.10,NE,45,1.0,1.0,72,0.00,,,0.02,weatherlink.com 1.10,2013-08-07 01:05:00,
2013-08-06 18:20:00,60.4,51.0,30.10,NE,45,0.0,3.0,71,0.00,,,0.02,weatherlink.com 1.10,2013-08-07 01:20:00,
2013-08-06 18:35:00,60.5,51.0,30.09,NE,45,0.0,2.0,70,0.00,,,0.02,weatherlink.com 1.10,2013-08-07 01:35:00,
2013-08-06 18:50:00,60.5,50.0,30.09,NW,307,2.0,4.0,69,0.00,,,0.02,weatherlink.com 1.10,2013-08-07 01:50:00,
2013-08-06 19:05:00,60.3,51.0,30.09,NNE,26,0.0,4.0,71,0.00,,,0.02,weatherlink.com 1.10,2013-08-07 02:05:00,
2013-08-06 19:20:00,59.9,50.0,30.09,NNE,32,0.0,4.0,71,0.00,,,0.02,weatherlink.com 1.10,2013-08-07 02:20:00,
2013-08-06 19:35:00,59.6,51.0,30.09,NE,34,0.0,3.0,72,0.00,,,0.02,weatherlink.com 1.10,2013-08-07 02:35:00,
2013-08-06 19:50:00,59.4,51.0,30.09,North,359,0.0,2.0,73,0.00,,,0.02,weatherlink.com 1.10,2013-08-07 02:50:00,
2013-08-06 20:05:00,59.1,50.0,30.09,North,359,0.0,2.0,73,0.00,,,0.02,weatherlink.com 1.10,2013-08-07 03:05:00,
2013-08-06 20:20:00,58.9,51.0,30.09,North,359,0.0,2.0,74,0.00,,,0.02,weatherlink.com 1.10,2013-08-07 03:20:00,
2013-08-06 20:35:00,58.6,50.0,30.09,North,359,0.0,2.0,74,0.00,,,0.02,weatherlink.com 1.10,2013-08-07 03:35:00,
2013-08-06 20:50:00,58.6,50.0,30.10,North,359,0.0,1.0,73,0.00,,,0.02,weatherlink.com 1.10,2013-08-07 03:50:00,
2013-08-06 21:05:00,58.7,50.0,30.10,North,359,0.0,2.0,72,0.00,,,0.02,weatherlink.com 1.10,2013-08-07 04:05:00,
2013-08-06 21:20:00,58.7,50.0,30.10,North,359,0.0,0.0,73,0.00,,,0.02,weatherlink.com 1.10,2013-08-07 04:20:00,
2013-08-06 21:35:00,58.6,49.0,30.10,North,359,0.0,0.0,71,0.00,,,0.02,weatherlink.com 1.10,2013-08-07 04:35:00,
2013-08-06 21:50:00,58.7,50.0,30.10,North,359,0.0,0.0,73,0.00,,,0.02,weatherlink.com 1.10,2013-08-07 04:50:00,
2013-08-06 22:05:00,58.7,49.0,30.10,North,359,0.0,1.0,71,0.00,,,0.02,weatherlink.com 1.10,2013-08-07 05:05:00,
2013-08-06 22:20:00,59.0,49.0,30.11,North,359,0.0,1.0,70,0.00,,,0.02,weatherlink.com 1.10,2013-08-07 05:20:00,
2013-08-06 22:35:00,59.3,49.0,30.10,North,359,0.0,2.0,69,0.00,,,0.02,weatherlink.com 1.10,2013-08-07 05:35:00,
2013-08-06 22:50:00,59.1,50.0,30.11,North,359,0.0,0.0,71,0.00,,,0.02,weatherlink.com 1.10,2013-08-07 05:50:00,
2013-08-06 23:05:00,58.8,50.0,30.11,North,359,0.0,0.0,73,0.00,,,0.02,weatherlink.com 1.10,2013-08-07 06:05:00,
2013-08-06 23:20:00,58.6,51.0,30.11,North,359,0.0,0.0,75,0.00,,,0.02,weatherlink.com 1.10,2013-08-07 06:20:00,
2013-08-06 23:35:00,58.5,50.0,30.11,North,359,0.0,2.0,74,0.00,,,0.02,weatherlink.com 1.10,2013-08-07 06:35:00,
2013-08-06 23:50:00,58.4,51.0,30.11,North,359,0.0,0.0,75,0.00,,,0.02,weatherlink.com 1.10,2013-08-07 06:50:00,